ΕΜΥ, Εθνική Μετεωρολογική Υπηρεσία - Δελτία Καιρού, Προγνώσεις

ΑΕΡΟΝΑΥΤΙΛΙΑ

GREEK AIRPORTS CODES

LGAV 151520Z 01010KT 9999 FEW020 BKN040 07/M00 Q1014 RMK NOSIG=

EUROPEAN AIRPORTS CODES

LFPO 151500Z 04009KT 9999 BKN028 02/M03 Q1029 NOSIG=